Terminal Aerodrome Forecast
Issued by NWS

Home | Current Version | Previous Version | Text Only | Print | Product List | Glossary On
Versions: 1 2 3 4 5 6 7 8 9 10 11 12 13 14 15
000
FTUS46 KMTR 261500 AAA
TAFSTS
TAF AMD
KSTS 261525Z 2615/2712 00000KT 3SM BR BKN001
      TEMPO 2616/2618 5SM BR SCT002
     FM261800 00000KT P6SM BKN250
     FM262000 VRB03KT P6SM BKN250
     FM270400 00000KT P6SM BKN120 OVC200=

USA.gov is the U.S. government's official web portal to all federal, state and local government web resources and services.